Time;durP1;ratioP1;P1;durP2;ratioP2;P2;SDS_P1;SDS_P2;PMS_P1;PMS_P2;Temp;Humidity;BMP_temperature;BMP_pressure;BME280_temperature;BME280_humidity;BME280_pressure;Samples;Min_cycle;Max_cycle;Signal;HPM_P1;HPM_P2
2022/10/17 00:02:57;;;;;;;2.25;0.82;;;21.40;80.60;;;;;;10586461;27;20121;-41
2022/10/17 00:07:58;;;;;;;1.95;1.02;;;21.40;80.50;;;;;;10574704;28;20051;-47
2022/10/17 00:13:00;;;;;;;1.98;0.80;;;20.80;80.20;;;;;;10586235;27;20074;-44
2022/10/17 00:18:04;;;;;;;5.90;1.00;;;21.40;80.50;;;;;;10566310;27;20063;-43
2022/10/17 00:23:06;;;;;;;3.75;1.40;;;21.40;80.70;;;;;;10594815;27;20043;-43
2022/10/17 00:28:08;;;;;;;1.88;0.82;;;21.30;80.70;;;;;;10585406;27;20079;-39
2022/10/17 00:33:12;;;;;;;2.47;1.05;;;21.40;80.80;;;;;;10574277;27;20043;-42
2022/10/17 00:38:14;;;;;;;2.85;0.95;;;21.80;81.50;;;;;;10585231;27;20096;-41
2022/10/17 00:43:17;;;;;;;1.30;0.90;;;21.30;80.80;;;;;;10574825;27;20131;-40
2022/10/17 00:48:23;;;;;;;3.47;1.00;;;21.30;80.80;;;;;;10567897;28;20056;-43
2022/10/17 00:53:25;;;;;;;0.60;0.60;;;21.30;80.90;;;;;;10561284;27;20051;-40
2022/10/17 00:58:27;;;;;;;1.27;0.73;;;21.30;81.00;;;;;;10572654;27;20047;-41
2022/10/17 01:03:30;;;;;;;1.30;1.00;;;21.30;80.80;;;;;;10571172;28;20101;-45
2022/10/17 01:08:32;;;;;;;3.20;0.90;;;21.30;80.80;;;;;;10564008;27;20168;-42
2022/10/17 01:13:39;;;;;;;1.05;0.85;;;21.30;80.90;;;;;;10559599;27;20075;-41
2022/10/17 01:18:55;;;;;;;1.98;0.90;;;21.30;80.90;;;;;;10552370;27;20056;-42
2022/10/17 01:24:33;;;;;;;4.07;0.70;;;21.30;80.90;;;;;;10573367;28;20176;-41
2022/10/17 01:29:52;;;;;;;2.35;0.88;;;21.30;80.80;;;;;;10532298;28;20135;-42
2022/10/17 01:34:59;;;;;;;3.05;0.90;;;21.30;81.00;;;;;;10558819;28;20143;-40
2022/10/17 01:40:07;;;;;;;2.97;0.90;;;21.30;81.20;;;;;;10562653;28;20055;-44
2022/10/17 01:45:14;;;;;;;0.98;0.75;;;21.20;81.20;;;;;;10567681;28;20073;-42
2022/10/17 01:50:23;;;;;;;1.70;0.68;;;21.20;81.20;;;;;;10573524;28;20048;-40
2022/10/17 01:55:29;;;;;;;1.70;0.80;;;21.20;81.20;;;;;;10569503;28;20043;-43
2022/10/17 02:00:34;;;;;;;0.90;0.80;;;20.70;80.90;;;;;;10573080;28;20047;-45
2022/10/17 02:05:40;;;;;;;1.88;1.00;;;21.20;81.20;;;;;;10579939;28;20066;-41
2022/10/17 02:10:53;;;;;;;1.73;0.75;;;21.20;81.20;;;;;;10577747;28;20136;-43
2022/10/17 02:16:12;;;;;;;0.85;0.60;;;21.20;81.30;;;;;;10562114;28;20507;-43
2022/10/17 02:21:24;;;;;;;1.35;0.90;;;21.20;81.40;;;;;;10575080;28;20056;-40
2022/10/17 02:26:28;;;;;;;;;;;21.10;81.50;;;;;;10587276;28;20077;-42
2022/10/17 02:31:36;;;;;;;2.78;1.00;;;21.60;81.90;;;;;;10570552;28;19985;-41
2022/10/17 02:36:45;;;;;;;1.88;0.70;;;21.10;81.50;;;;;;10576043;28;20503;-41
2022/10/17 02:41:48;;;;;;;2.95;0.85;;;21.10;81.40;;;;;;10577323;27;20448;-45
2022/10/17 02:46:57;;;;;;;3.15;0.80;;;21.10;81.60;;;;;;10575297;28;20057;-41
2022/10/17 02:52:07;;;;;;;1.10;1.00;;;21.10;81.70;;;;;;10554923;28;20073;-43
2022/10/17 02:57:14;;;;;;;1.50;0.88;;;21.10;81.80;;;;;;10560460;27;20495;-43
2022/10/17 03:02:16;;;;;;;1.38;0.90;;;21.10;81.80;;;;;;10559967;28;20071;-43
2022/10/17 03:07:19;;;;;;;3.67;1.00;;;21.10;81.70;;;;;;10592701;27;20519;-40
2022/10/17 03:12:21;;;;;;;1.17;1.02;;;21.00;81.90;;;;;;10586056;27;20438;-41
2022/10/17 03:17:23;;;;;;;1.92;1.15;;;21.00;81.70;;;;;;10573077;27;20088;-42
2022/10/17 03:22:26;;;;;;;1.00;0.90;;;21.10;81.80;;;;;;10576555;27;20055;-41
2022/10/17 03:27:28;;;;;;;0.80;0.80;;;21.10;82.00;;;;;;10582204;27;20146;-43
2022/10/17 03:32:32;;;;;;;1.10;1.00;;;21.30;82.60;;;;;;10567027;27;20047;-41
2022/10/17 03:37:35;;;;;;;1.73;0.90;;;21.00;81.90;;;;;;10568661;27;20519;-45
2022/10/17 03:42:37;;;;;;;1.08;0.90;;;21.00;82.30;;;;;;10566561;27;20052;-44
2022/10/17 03:47:39;;;;;;;1.17;0.98;;;21.10;82.20;;;;;;10565883;27;20567;-42
2022/10/17 03:52:46;;;;;;;4.53;1.35;;;21.10;82.10;;;;;;10579634;27;20044;-42
2022/10/17 03:57:48;;;;;;;3.85;1.40;;;21.00;82.70;;;;;;10576016;27;20040;-41
2022/10/17 04:02:50;;;;;;;1.85;1.30;;;21.00;82.60;;;;;;10570151;28;20537;-34
2022/10/17 04:07:53;;;;;;;1.55;1.27;;;20.90;83.00;;;;;;10571119;28;20048;-42
2022/10/17 04:12:55;;;;;;;3.55;1.58;;;20.90;83.00;;;;;;10572237;27;20132;-39
2022/10/17 04:17:57;;;;;;;2.03;1.10;;;20.90;83.40;;;;;;10591971;27;20044;-41
2022/10/17 04:23:00;;;;;;;2.80;2.10;;;20.80;83.60;;;;;;10569375;27;20089;-38
2022/10/17 04:28:02;;;;;;;2.10;1.50;;;21.00;83.60;;;;;;10566642;27;20139;-40
2022/10/17 04:33:04;;;;;;;1.58;1.10;;;21.20;84.30;;;;;;10564761;27;20503;-43
2022/10/17 04:38:07;;;;;;;3.90;2.78;;;20.50;85.30;;;;;;10562725;28;20440;-42
2022/10/17 04:43:09;;;;;;;2.67;1.35;;;20.70;85.50;;;;;;10564547;28;20492;-39
2022/10/17 04:48:11;;;;;;;3.90;1.35;;;20.50;85.10;;;;;;10571958;28;20047;-37
2022/10/17 04:53:14;;;;;;;4.22;1.70;;;20.70;84.70;;;;;;10575867;27;20081;-43
2022/10/17 04:58:17;;;;;;;8.65;2.60;;;20.60;85.00;;;;;;10572435;27;20075;-37
2022/10/17 05:03:18;;;;;;;;;;;20.40;86.90;;;;;;10568005;27;20051;-40
2022/10/17 05:08:21;;;;;;;1.65;1.15;;;20.60;84.70;;;;;;10598585;27;20034;-43
2022/10/17 05:13:23;;;;;;;3.55;1.25;;;20.60;85.00;;;;;;10605022;27;20040;-41
2022/10/17 05:18:25;;;;;;;2.15;1.52;;;20.50;85.60;;;;;;10571212;27;20130;-42
2022/10/17 05:23:29;;;;;;;1.15;1.05;;;20.70;85.70;;;;;;10566028;28;20061;-44
2022/10/17 05:28:31;;;;;;;2.92;2.45;;;20.60;84.40;;;;;;10550622;28;20453;-49
2022/10/17 05:33:34;;;;;;;2.88;1.35;;;20.20;87.70;;;;;;10558673;28;20565;-49
2022/10/17 05:38:37;;;;;;;4.88;1.67;;;20.00;89.50;;;;;;10559702;28;20726;-39
2022/10/17 05:43:39;;;;;;;4.45;1.30;;;20.50;85.60;;;;;;10569785;28;20074;-42
2022/10/17 05:48:41;;;;;;;2.47;1.80;;;20.60;85.60;;;;;;10555888;28;20130;-43
2022/10/17 05:53:44;;;;;;;1.75;1.38;;;20.50;88.90;;;;;;10542457;28;20506;-43
2022/10/17 05:58:46;;;;;;;4.03;1.77;;;20.40;86.80;;;;;;10554767;28;20128;-41
2022/10/17 06:03:48;;;;;;;2.30;1.77;;;20.50;88.50;;;;;;10557478;28;20054;-44
2022/10/17 06:08:51;;;;;;;1.42;1.02;;;20.40;88.10;;;;;;10571255;28;20147;-42
2022/10/17 06:13:53;;;;;;;3.10;2.00;;;20.40;86.60;;;;;;10548539;28;20052;-43
2022/10/17 06:18:55;;;;;;;2.58;1.73;;;20.40;86.60;;;;;;10562325;28;20504;-39
2022/10/17 06:23:58;;;;;;;6.70;1.58;;;20.70;85.20;;;;;;10589298;27;20051;-42
2022/10/17 06:29:00;;;;;;;4.40;1.45;;;20.50;85.80;;;;;;10559893;28;20061;-41
2022/10/17 06:34:01;;;;;;;3.58;1.73;;;20.80;84.30;;;;;;10572802;28;20100;-40
2022/10/17 06:39:05;;;;;;;3.58;1.65;;;20.80;84.10;;;;;;10565698;27;20122;-45
2022/10/17 06:44:09;;;;;;;5.28;2.90;;;20.90;86.70;;;;;;10571510;27;20050;-43
2022/10/17 06:49:11;;;;;;;1.92;1.50;;;20.60;87.20;;;;;;10566456;27;20067;-42
2022/10/17 06:54:15;;;;;;;2.58;1.80;;;20.90;84.40;;;;;;10563695;28;20518;-41
2022/10/17 06:59:16;;;;;;;1.85;1.52;;;20.20;84.30;;;;;;10573632;28;20078;-44
2022/10/17 07:04:18;;;;;;;2.38;1.73;;;20.60;87.80;;;;;;10551083;27;20048;-39
2022/10/17 07:09:23;;;;;;;3.20;2.42;;;20.30;88.30;;;;;;10558450;28;20174;-38
2022/10/17 07:14:30;;;;;;;6.97;2.42;;;20.40;90.00;;;;;;10563558;27;20395;-42
2022/10/17 07:19:32;;;;;;;4.32;3.15;;;19.90;93.60;;;;;;10565053;28;20142;-41
2022/10/17 07:24:35;;;;;;;5.38;3.60;;;19.70;93.10;;;;;;10577962;27;20105;-38
2022/10/17 07:29:37;;;;;;;4.28;2.45;;;18.80;95.70;;;;;;10575662;28;20055;-40
2022/10/17 07:34:39;;;;;;;14.95;4.35;;;19.20;93.70;;;;;;10569792;28;20051;-38
2022/10/17 07:39:42;;;;;;;10.43;5.50;;;18.90;96.10;;;;;;10563086;28;20075;-37
2022/10/17 07:44:46;;;;;;;12.50;4.35;;;17.90;99.90;;;;;;10568452;27;20490;-39
2022/10/17 07:49:48;;;;;;;6.53;3.55;;;17.90;98.90;;;;;;10559747;27;20051;-41
2022/10/17 07:54:51;;;;;;;8.95;3.95;;;18.10;98.10;;;;;;10563815;27;20079;-38
2022/10/17 07:59:53;;;;;;;5.05;4.22;;;18.30;99.90;;;;;;10580241;27;20468;-39
2022/10/17 08:04:55;;;;;;;7.18;3.15;;;19.10;97.70;;;;;;10588866;27;20134;-39
2022/10/17 08:09:58;;;;;;;4.90;3.03;;;18.50;97.10;;;;;;10575347;27;20093;-38
2022/10/17 08:15:00;;;;;;;9.23;3.85;;;18.60;99.40;;;;;;10576963;27;20512;-38
2022/10/17 08:20:02;;;;;;;9.48;3.58;;;19.30;99.90;;;;;;10580335;27;20082;-38
2022/10/17 08:25:06;;;;;;;4.77;2.10;;;19.20;95.90;;;;;;10590704;27;20044;-40
2022/10/17 08:30:09;;;;;;;3.10;2.40;;;18.90;95.30;;;;;;10558968;28;20132;-39
2022/10/17 08:35:13;;;;;;;2.72;2.10;;;19.50;92.90;;;;;;10556963;27;20097;-40
2022/10/17 08:40:20;;;;;;;8.65;4.15;;;20.10;91.10;;;;;;10560937;27;20047;-39
2022/10/17 08:45:32;;;;;;;2.25;2.05;;;19.80;93.30;;;;;;10568697;27;20044;-40
2022/10/17 08:50:39;;;;;;;11.18;3.58;;;19.60;93.80;;;;;;10577578;27;20047;-40
2022/10/17 08:55:46;;;;;;;5.75;2.95;;;19.00;95.40;;;;;;10586954;27;20179;-40
2022/10/17 09:00:54;;;;;;;6.40;3.20;;;19.50;94.50;;;;;;10573635;28;20472;-40
2022/10/17 09:06:07;;;;;;;7.28;2.35;;;18.90;95.10;;;;;;10566604;28;20113;-39
2022/10/17 09:11:18;;;;;;;2.42;1.92;;;19.10;96.40;;;;;;10570721;28;20090;-40
2022/10/17 09:16:39;;;;;;;4.70;3.47;;;19.10;92.80;;;;;;10569025;28;20155;-40
2022/10/17 09:21:45;;;;;;;4.70;2.72;;;19.60;93.40;;;;;;10572919;28;20052;-39
2022/10/17 09:26:50;;;;;;;5.43;2.47;;;19.00;98.50;;;;;;10569518;27;20078;-40
2022/10/17 09:32:00;;;;;;;7.43;2.08;;;19.60;92.90;;;;;;10574251;27;20400;-41
2022/10/17 09:37:02;;;;;;;6.00;3.30;;;19.30;95.30;;;;;;10573459;28;20036;-40
2022/10/17 09:42:06;;;;;;;3.97;2.08;;;18.60;99.90;;;;;;10558261;28;20071;-38
2022/10/17 09:47:22;;;;;;;4.03;2.03;;;19.40;93.90;;;;;;10572891;28;20132;-39
2022/10/17 09:52:29;;;;;;;8.50;2.22;;;19.50;94.00;;;;;;10572495;28;20674;-39
2022/10/17 09:57:53;;;;;;;4.40;2.20;;;18.80;97.40;;;;;;10564222;28;21234;-40
2022/10/17 10:03:10;;;;;;;3.10;2.38;;;19.20;99.90;;;;;;10566747;28;20049;-39
2022/10/17 10:08:15;;;;;;;5.82;2.97;;;18.90;98.30;;;;;;10574636;28;20078;-39
2022/10/17 10:13:20;;;;;;;5.47;2.70;;;17.70;99.90;;;;;;10569475;28;20050;-39
2022/10/17 10:18:30;;;;;;;2.20;2.00;;;17.50;99.90;;;;;;10562689;28;20128;-39
2022/10/17 10:23:33;;;;;;;2.92;2.15;;;17.60;99.90;;;;;;10577078;27;20051;-39
2022/10/17 10:28:36;;;;;;;;;;;17.60;99.90;;;;;;10577812;27;20079;-40
2022/10/17 10:33:42;;;;;;;;;;;16.80;99.90;;;;;;10577752;27;19951;-40
2022/10/17 10:38:53;;;;;;;6.63;2.90;;;17.90;98.60;;;;;;10569766;28;20408;-40
2022/10/17 10:43:57;;;;;;;3.10;1.70;;;18.70;96.60;;;;;;10573100;27;20103;-40
2022/10/17 10:49:00;;;;;;;2.40;2.05;;;18.70;96.00;;;;;;10575781;27;20079;-41
2022/10/17 10:54:10;;;;;;;3.15;1.40;;;20.00;92.10;;;;;;10563275;28;20200;-40
2022/10/17 10:59:20;;;;;;;1.60;1.00;;;20.40;90.60;;;;;;10571485;28;20067;-42
2022/10/17 11:04:28;;;;;;;1.52;1.27;;;19.60;92.90;;;;;;10558152;27;20064;-49
2022/10/17 11:09:42;;;;;;;2.45;1.13;;;18.90;94.00;;;;;;10576254;28;20062;-41
2022/10/17 11:14:51;;;;;;;1.88;1.63;;;19.20;94.90;;;;;;10577098;28;21045;-40
2022/10/17 11:20:09;;;;;;;2.80;1.17;;;19.20;95.30;;;;;;10587131;27;20074;-41
2022/10/17 11:25:22;;;;;;;3.42;1.38;;;19.20;94.60;;;;;;10574594;27;20078;-41
2022/10/17 11:30:31;;;;;;;1.77;1.10;;;19.30;95.50;;;;;;10557494;27;20147;-41
2022/10/17 11:35:37;;;;;;;3.15;1.23;;;19.20;94.70;;;;;;10575301;27;20082;-41
2022/10/17 11:40:43;;;;;;;2.53;1.80;;;18.80;99.20;;;;;;10572036;27;20123;-40
2022/10/17 11:45:48;;;;;;;3.90;1.50;;;18.80;98.30;;;;;;10576744;27;20073;-39
2022/10/17 11:50:59;;;;;;;1.90;1.48;;;18.90;96.60;;;;;;10582175;27;20518;-43
2022/10/17 11:56:02;;;;;;;3.20;1.33;;;18.80;99.90;;;;;;10578050;27;20138;-45
2022/10/17 12:01:23;;;;;;;2.17;1.00;;;19.20;98.00;;;;;;10567581;28;20088;-41
2022/10/17 12:06:41;;;;;;;3.03;1.60;;;19.00;99.20;;;;;;10570912;27;20078;-42
2022/10/17 12:11:52;;;;;;;3.08;1.73;;;18.80;99.40;;;;;;10563498;27;20039;-41
2022/10/17 12:16:55;;;;;;;11.55;2.08;;;19.20;98.30;;;;;;10576438;27;20081;-38
2022/10/17 12:22:02;;;;;;;5.47;1.30;;;19.20;98.20;;;;;;10577596;27;20480;-44
2022/10/17 12:27:33;;;;;;;1.95;1.10;;;18.50;98.80;;;;;;10595206;27;20054;-41
2022/10/17 12:32:36;;;;;;;2.47;1.30;;;19.10;96.90;;;;;;10566505;28;20656;-42
2022/10/17 12:38:16;;;;;;;7.18;2.33;;;18.20;99.90;;;;;;10544588;28;21113;-41
2022/10/17 12:43:43;;;;;;;5.70;2.78;;;18.00;99.90;;;;;;10518251;27;20047;-40
2022/10/17 12:49:04;;;;;;;13.52;4.30;;;18.00;99.70;;;;;;10558530;27;20058;-40
2022/10/17 12:54:12;;;;;;;5.32;2.70;;;17.90;99.80;;;;;;10540052;27;20456;-40
2022/10/17 12:59:18;;;;;;;9.70;1.60;;;18.70;99.90;;;;;;10568677;27;20048;-40
2022/10/17 13:04:21;;;;;;;4.35;1.88;;;17.70;99.90;;;;;;10566518;27;20176;-39
2022/10/17 13:09:30;;;;;;;4.75;1.70;;;18.00;99.90;;;;;;10570476;27;20082;-37
2022/10/17 13:14:33;;;;;;;3.42;1.40;;;18.20;99.50;;;;;;10572001;28;20048;-43
2022/10/17 13:19:43;;;;;;;6.47;1.58;;;18.80;99.90;;;;;;10566096;28;20086;-41
2022/10/17 13:24:45;;;;;;;5.25;1.88;;;19.50;98.90;;;;;;10590910;27;20101;-39
2022/10/17 13:29:47;;;;;;;2.60;1.90;;;18.30;99.90;;;;;;10580324;27;20103;-40
2022/10/17 13:35:09;;;;;;;7.75;1.83;;;19.00;98.00;;;;;;10557708;28;20730;-39
2022/10/17 13:40:17;;;;;;;5.10;1.77;;;19.20;96.70;;;;;;10565611;28;20082;-41
2022/10/17 13:45:22;;;;;;;2.80;1.17;;;18.70;98.00;;;;;;10573019;28;20467;-40
2022/10/17 13:50:34;;;;;;;3.80;1.50;;;19.90;95.20;;;;;;10560441;28;20083;-40
2022/10/17 13:55:36;;;;;;;6.57;1.77;;;19.30;97.20;;;;;;10554928;28;20074;-40
2022/10/17 14:00:38;;;;;;;7.80;1.98;;;19.30;96.30;;;;;;10565617;28;20165;-43
2022/10/17 14:06:04;;;;;;;10.65;2.20;;;19.20;97.60;;;;;;10575339;28;20548;-43
2022/10/17 14:11:22;;;;;;;3.72;1.55;;;18.70;99.80;;;;;;10567255;28;20099;-42
2022/10/17 14:16:26;;;;;;;4.72;2.53;;;18.60;99.80;;;;;;10571888;28;20108;-37
2022/10/17 14:21:29;;;;;;;6.85;1.52;;;18.90;98.50;;;;;;10565517;28;20156;-42
2022/10/17 14:26:35;;;;;;;8.90;2.40;;;18.70;99.10;;;;;;10578027;28;20047;-40
2022/10/17 14:31:38;;;;;;;6.32;2.05;;;19.00;97.60;;;;;;10560992;28;20051;-43
2022/10/17 14:36:42;;;;;;;6.95;2.05;;;18.60;99.90;;;;;;10565490;28;20047;-42
2022/10/17 14:41:45;;;;;;;11.48;2.70;;;18.30;98.60;;;;;;10566341;27;20527;-41
2022/10/17 14:46:50;;;;;;;7.50;2.08;;;18.40;99.90;;;;;;10582953;27;20052;-40
2022/10/17 14:52:29;;;;;;;4.18;2.15;;;18.30;99.90;;;;;;10569072;27;20404;-41
2022/10/17 14:57:45;;;;;;;8.77;2.20;;;18.20;99.90;;;;;;10554976;27;20126;-38
2022/10/17 15:02:51;;;;;;;5.03;1.85;;;18.90;98.80;;;;;;10569363;28;20039;-43
2022/10/17 15:07:54;;;;;;;7.65;1.73;;;18.40;99.90;;;;;;10564120;27;20079;-41
2022/10/17 15:12:56;;;;;;;7.00;1.83;;;18.30;99.90;;;;;;10579716;27;20113;-40
2022/10/17 15:17:58;;;;;;;6.55;2.17;;;18.10;99.90;;;;;;10562417;27;20047;-40
2022/10/17 15:23:03;;;;;;;8.60;2.38;;;18.60;99.90;;;;;;10578501;27;20040;-39
2022/10/17 15:28:04;;;;;;;10.63;1.88;;;18.10;99.90;;;;;;10582507;27;20139;-40
2022/10/17 15:33:06;;;;;;;5.83;1.30;;;18.20;99.90;;;;;;10573968;28;20408;-40
2022/10/17 15:38:12;;;;;;;5.25;1.52;;;18.50;99.90;;;;;;10573150;27;20044;-41
2022/10/17 15:43:14;;;;;;;2.45;1.17;;;18.80;99.30;;;;;;10578671;27;20525;-39
2022/10/17 15:48:19;;;;;;;6.90;1.70;;;19.80;97.40;;;;;;10568043;27;20471;-39
2022/10/17 15:53:23;;;;;;;4.10;1.45;;;18.80;99.90;;;;;;10562845;27;20096;-43
2022/10/17 15:58:27;;;;;;;9.23;1.20;;;17.90;99.90;;;;;;10573088;27;20154;-39
2022/10/17 16:03:29;;;;;;;6.70;1.95;;;18.50;99.90;;;;;;10563109;27;20445;-41
2022/10/17 16:08:32;;;;;;;3.83;1.80;;;18.30;99.90;;;;;;10579510;27;20138;-40
2022/10/17 16:13:34;;;;;;;13.50;2.80;;;18.30;99.90;;;;;;10568238;27;20102;-38
2022/10/17 16:18:36;;;;;;;5.45;1.45;;;18.30;99.90;;;;;;10573414;27;20079;-39
2022/10/17 16:23:40;;;;;;;5.57;1.40;;;17.80;99.90;;;;;;10572391;27;20078;-39
2022/10/17 16:28:42;;;;;;;9.82;1.50;;;18.50;99.30;;;;;;10568852;28;20528;-42
2022/10/17 16:33:43;;;;;;;13.57;1.83;;;18.50;99.40;;;;;;10572057;27;20089;-41
2022/10/17 16:38:48;;;;;;;6.90;2.30;;;18.10;99.90;;;;;;10569315;28;20135;-39
2022/10/17 16:43:52;;;;;;;8.32;3.22;;;18.30;99.90;;;;;;10574831;27;20046;-42
2022/10/17 16:48:54;;;;;;;9.27;1.95;;;18.70;98.80;;;;;;10573025;28;20075;-41
2022/10/17 16:53:59;;;;;;;;;;;17.70;99.90;;;;;;10566345;28;20071;-40
2022/10/17 16:59:02;;;;;;;13.75;3.30;;;17.50;99.90;;;;;;10563442;28;19936;-41
2022/10/17 17:04:04;;;;;;;7.70;1.92;;;17.30;99.90;;;;;;10571282;27;20075;-40
2022/10/17 17:09:08;;;;;;;10.00;1.40;;;18.60;98.80;;;;;;10552997;27;20088;-38
2022/10/17 17:14:12;;;;;;;12.10;3.55;;;18.80;99.10;;;;;;10556797;28;20051;-40
2022/10/17 17:19:17;;;;;;;12.73;1.33;;;18.70;98.90;;;;;;10553693;27;20132;-39
2022/10/17 17:24:24;;;;;;;12.18;2.90;;;18.70;98.30;;;;;;10556730;27;20564;-36
2022/10/17 17:29:26;;;;;;;6.90;1.45;;;18.10;99.90;;;;;;10537140;28;20138;-38
2022/10/17 17:34:28;;;;;;;6.53;1.27;;;18.30;99.90;;;;;;10518739;28;20084;-39
2022/10/17 17:39:31;;;;;;;9.40;2.47;;;17.60;99.90;;;;;;10531385;28;20586;-38
2022/10/17 17:44:33;;;;;;;9.50;1.23;;;17.40;99.90;;;;;;10531660;28;20142;-39
2022/10/17 17:49:35;;;;;;;14.77;2.27;;;17.40;99.90;;;;;;10531043;28;20102;-39
2022/10/17 17:54:38;;;;;;;7.93;3.00;;;17.70;99.90;;;;;;10529169;28;20466;-38
2022/10/17 17:59:40;;;;;;;14.52;3.17;;;18.50;99.50;;;;;;10531355;28;20127;-46
2022/10/17 18:04:42;;;;;;;13.60;4.20;;;19.50;98.30;;;;;;10529841;28;20563;-44
2022/10/17 18:09:45;;;;;;;6.13;1.73;;;19.50;95.20;;;;;;10524278;28;20531;-46
2022/10/17 18:14:47;;;;;;;13.52;3.13;;;19.30;96.90;;;;;;10531495;28;20072;-42
2022/10/17 18:19:49;;;;;;;;;;;19.60;96.50;;;;;;10541884;28;20064;-47
2022/10/17 18:24:52;;;;;;;17.02;4.10;;;20.30;95.60;;;;;;10542211;28;20352;-44
2022/10/17 18:29:54;;;;;;;8.88;1.85;;;20.10;94.70;;;;;;10531348;28;20083;-45
2022/10/17 18:34:56;;;;;;;10.18;2.85;;;20.20;94.40;;;;;;10526363;28;20051;-44
2022/10/17 18:40:01;;;;;;;;;;;20.50;93.60;;;;;;10550016;28;20040;-42
2022/10/17 18:45:04;;;;;;;11.13;3.58;;;20.50;93.50;;;;;;10537089;28;19973;-46
2022/10/17 18:50:06;;;;;;;10.23;3.15;;;19.80;95.50;;;;;;10537543;28;20481;-42
2022/10/17 18:55:09;;;;;;;;;;;20.50;93.20;;;;;;10535054;28;20073;-46
2022/10/17 19:00:12;;;;;;;25.92;14.15;;;20.80;92.80;;;;;;10530165;28;20010;-41
2022/10/17 19:05:14;;;;;;;47.33;30.23;;;21.10;91.90;;;;;;10528593;28;20054;-44
2022/10/17 19:10:17;;;;;;;59.78;41.20;;;20.80;91.80;;;;;;10527509;28;20070;-45
2022/10/17 19:15:19;;;;;;;73.47;46.72;;;21.00;92.00;;;;;;10532283;28;20097;-45
2022/10/17 19:20:21;;;;;;;71.70;50.25;;;21.10;91.70;;;;;;10537465;28;20048;-41
2022/10/17 19:25:24;;;;;;;86.05;59.40;;;21.20;91.40;;;;;;10536193;28;20062;-47
2022/10/17 19:30:26;;;;;;;112.20;84.00;;;21.30;91.10;;;;;;10534519;28;20211;-44
2022/10/17 19:35:28;;;;;;;146.73;106.70;;;21.40;91.00;;;;;;10534961;28;20135;-47
2022/10/17 19:40:31;;;;;;;141.38;106.07;;;20.90;91.60;;;;;;10538933;28;20048;-50
2022/10/17 19:45:33;;;;;;;166.45;128.65;;;21.10;91.70;;;;;;10531751;28;20101;-40
2022/10/17 19:50:35;;;;;;;153.60;117.78;;;21.00;92.10;;;;;;10534187;28;20080;-40
2022/10/17 19:55:38;;;;;;;165.80;125.13;;;21.20;91.40;;;;;;10525064;28;20086;-45
2022/10/17 20:00:46;;;;;;;147.95;115.43;;;20.90;92.30;;;;;;10535091;28;20075;-44
2022/10/17 20:05:48;;;;;;;139.85;107.05;;;20.40;91.30;;;;;;10547319;28;20052;-42
2022/10/17 20:10:51;;;;;;;139.52;107.00;;;21.30;91.00;;;;;;10532138;28;20055;-42
2022/10/17 20:15:57;;;;;;;118.18;92.15;;;21.20;91.20;;;;;;10529633;28;20076;-45
2022/10/17 20:21:03;;;;;;;121.80;93.65;;;21.10;91.30;;;;;;10543892;28;20059;-41
2022/10/17 20:26:09;;;;;;;109.03;84.25;;;21.00;91.70;;;;;;10534036;28;20072;-44
2022/10/17 20:31:12;;;;;;;39.65;26.88;;;21.20;91.00;;;;;;10529910;28;20090;-43
2022/10/17 20:36:15;;;;;;;88.88;67.53;;;21.00;91.20;;;;;;10538128;28;20127;-40
2022/10/17 20:41:18;;;;;;;86.47;64.35;;;20.70;91.30;;;;;;10531734;28;20046;-42
2022/10/17 20:46:21;;;;;;;83.10;61.40;;;21.30;90.50;;;;;;10541371;28;20934;-44
2022/10/17 20:51:24;;;;;;;77.03;58.50;;;21.30;90.50;;;;;;10538418;28;20044;-46
2022/10/17 20:56:28;;;;;;;73.97;54.53;;;21.40;90.30;;;;;;10521309;28;20124;-44
2022/10/17 21:01:32;;;;;;;77.60;53.72;;;20.80;90.60;;;;;;10531838;28;20071;-45
2022/10/17 21:06:35;;;;;;;68.25;51.67;;;21.30;90.50;;;;;;10531804;28;20128;-44
2022/10/17 21:11:39;;;;;;;66.63;50.83;;;21.30;90.40;;;;;;10531070;28;20052;-45
2022/10/17 21:16:42;;;;;;;66.00;47.63;;;21.40;90.20;;;;;;10543132;28;20503;-44
2022/10/17 21:21:45;;;;;;;67.35;45.28;;;21.30;90.30;;;;;;10530627;28;20159;-45
2022/10/17 21:26:54;;;;;;;60.53;42.85;;;21.30;90.30;;;;;;10537421;28;20040;-47
2022/10/17 21:31:55;;;;;;;61.22;41.88;;;21.30;90.20;;;;;;10528294;28;20184;-45
2022/10/17 21:36:57;;;;;;;52.78;38.65;;;21.30;90.20;;;;;;10531884;28;20047;-43
2022/10/17 21:42:00;;;;;;;50.65;38.17;;;20.80;90.00;;;;;;10527163;28;20118;-41
2022/10/17 21:47:02;;;;;;;49.95;33.75;;;21.60;90.20;;;;;;10510492;28;20044;-43
2022/10/17 21:52:06;;;;;;;48.65;34.85;;;21.30;90.10;;;;;;10540512;28;20514;-42
2022/10/17 21:57:09;;;;;;;49.00;32.85;;;21.40;90.00;;;;;;10536438;28;20446;-50
2022/10/17 22:02:11;;;;;;;41.97;30.30;;;21.40;90.00;;;;;;10546855;28;20072;-45
2022/10/17 22:07:12;;;;;;;39.10;28.80;;;21.40;90.00;;;;;;10541813;28;20089;-43
2022/10/17 22:12:15;;;;;;;40.53;27.30;;;21.40;89.70;;;;;;10537628;28;20139;-44
2022/10/17 22:17:17;;;;;;;36.30;25.27;;;21.40;90.00;;;;;;10545759;28;20135;-46
2022/10/17 22:22:19;;;;;;;36.13;24.35;;;20.60;89.70;;;;;;10544316;28;20113;-47
2022/10/17 22:27:22;;;;;;;35.47;22.73;;;21.30;90.00;;;;;;10545503;28;20144;-42
2022/10/17 22:32:24;;;;;;;28.60;19.60;;;21.30;90.20;;;;;;10536150;28;20058;-44
2022/10/17 22:37:26;;;;;;;27.05;18.63;;;21.20;90.40;;;;;;10531523;28;20089;-42
2022/10/17 22:42:30;;;;;;;26.30;17.60;;;21.10;90.50;;;;;;10528469;28;20075;-41
2022/10/17 22:47:31;;;;;;;23.55;17.02;;;21.20;90.30;;;;;;10531565;28;20063;-45
2022/10/17 22:52:33;;;;;;;25.02;16.33;;;21.30;90.10;;;;;;10539204;28;20160;-45
2022/10/17 22:57:36;;;;;;;19.77;13.07;;;21.30;90.00;;;;;;10538372;28;20148;-42
2022/10/17 23:02:39;;;;;;;19.88;13.82;;;21.30;90.00;;;;;;10533928;28;20134;-44
2022/10/17 23:07:40;;;;;;;;;;;21.60;90.10;;;;;;10544505;28;20052;-45
2022/10/17 23:12:43;;;;;;;16.67;12.55;;;21.30;90.00;;;;;;10536306;28;20412;-45
2022/10/17 23:17:45;;;;;;;15.90;11.05;;;21.30;89.90;;;;;;10536469;28;20052;-43
2022/10/17 23:22:47;;;;;;;14.98;9.27;;;21.10;89.70;;;;;;10539563;28;20067;-42
2022/10/17 23:27:50;;;;;;;13.70;9.23;;;21.30;89.90;;;;;;10544908;28;20075;-40
2022/10/17 23:32:53;;;;;;;15.25;8.23;;;21.30;89.80;;;;;;10537577;28;20505;-42
2022/10/17 23:37:55;;;;;;;12.95;9.02;;;21.30;89.70;;;;;;10538476;28;20472;-42
2022/10/17 23:42:58;;;;;;;12.38;8.02;;;21.30;89.80;;;;;;10538654;28;20064;-43
2022/10/17 23:48:00;;;;;;;11.15;7.38;;;22.00;90.10;;;;;;10535032;28;20083;-42
2022/10/17 23:53:02;;;;;;;10.48;6.60;;;21.30;89.70;;;;;;10549929;28;20156;-43
2022/10/17 23:58:05;;;;;;;8.38;6.80;;;21.70;89.90;;;;;;10539159;28;20076;-46
